sensor_id;sensor_type;location;lat;lon;timestamp;temperature;humidity
46356;DHT22;32066;49.474;11.106;2022-10-31T00:01:29;15.50;97.90
46356;DHT22;32066;49.474;11.106;2022-10-31T00:03:56;15.60;97.80
46356;DHT22;32066;49.474;11.106;2022-10-31T00:06:23;15.60;97.70
46356;DHT22;32066;49.474;11.106;2022-10-31T00:08:52;15.50;97.90
46356;DHT22;32066;49.474;11.106;2022-10-31T00:11:20;15.40;98.00
46356;DHT22;32066;49.474;11.106;2022-10-31T00:13:47;15.40;98.00
46356;DHT22;32066;49.474;11.106;2022-10-31T00:16:16;15.40;97.70
46356;DHT22;32066;49.474;11.106;2022-10-31T00:18:43;15.20;98.10
46356;DHT22;32066;49.474;11.106;2022-10-31T00:21:10;15.30;98.10
46356;DHT22;32066;49.474;11.106;2022-10-31T00:23:37;15.30;97.90
46356;DHT22;32066;49.474;11.106;2022-10-31T00:26:04;15.30;97.80
46356;DHT22;32066;49.474;11.106;2022-10-31T00:28:32;15.30;97.70
46356;DHT22;32066;49.474;11.106;2022-10-31T00:31:00;15.30;97.70
46356;DHT22;32066;49.474;11.106;2022-10-31T00:33:28;15.30;97.80
46356;DHT22;32066;49.474;11.106;2022-10-31T00:35:55;15.30;97.80
46356;DHT22;32066;49.474;11.106;2022-10-31T00:38:22;15.20;98.00
46356;DHT22;32066;49.474;11.106;2022-10-31T00:40:49;15.20;98.00
46356;DHT22;32066;49.474;11.106;2022-10-31T00:43:16;15.20;98.10
46356;DHT22;32066;49.474;11.106;2022-10-31T00:45:43;15.20;98.10
46356;DHT22;32066;49.474;11.106;2022-10-31T00:48:10;15.20;98.00
46356;DHT22;32066;49.474;11.106;2022-10-31T00:50:39;15.20;97.80
46356;DHT22;32066;49.474;11.106;2022-10-31T00:53:06;15.10;97.80
46356;DHT22;32066;49.474;11.106;2022-10-31T00:55:33;15.10;97.80
46356;DHT22;32066;49.474;11.106;2022-10-31T00:58:00;15.10;98.10
46356;DHT22;32066;49.474;11.106;2022-10-31T01:00:27;15.00;98.00
46356;DHT22;32066;49.474;11.106;2022-10-31T01:02:55;15.00;97.80
46356;DHT22;32066;49.474;11.106;2022-10-31T01:05:22;15.00;97.60
46356;DHT22;32066;49.474;11.106;2022-10-31T01:07:50;15.00;97.50
46356;DHT22;32066;49.474;11.106;2022-10-31T01:10:17;14.90;97.60
46356;DHT22;32066;49.474;11.106;2022-10-31T01:12:45;14.90;97.70
46356;DHT22;32066;49.474;11.106;2022-10-31T01:15:14;14.90;97.70
46356;DHT22;32066;49.474;11.106;2022-10-31T01:17:41;14.90;97.80
46356;DHT22;32066;49.474;11.106;2022-10-31T01:20:11;14.90;97.70
46356;DHT22;32066;49.474;11.106;2022-10-31T01:22:39;14.80;97.50
46356;DHT22;32066;49.474;11.106;2022-10-31T01:25:08;14.80;97.50
46356;DHT22;32066;49.474;11.106;2022-10-31T01:27:35;14.70;97.50
46356;DHT22;32066;49.474;11.106;2022-10-31T01:30:03;14.60;97.60
46356;DHT22;32066;49.474;11.106;2022-10-31T01:32:30;14.60;97.70
46356;DHT22;32066;49.474;11.106;2022-10-31T01:34:57;14.60;97.80
46356;DHT22;32066;49.474;11.106;2022-10-31T01:37:24;14.60;97.80
46356;DHT22;32066;49.474;11.106;2022-10-31T01:39:51;14.60;97.80
46356;DHT22;32066;49.474;11.106;2022-10-31T01:42:21;14.70;97.90
46356;DHT22;32066;49.474;11.106;2022-10-31T01:44:56;14.60;98.00
46356;DHT22;32066;49.474;11.106;2022-10-31T01:47:40;14.60;97.90
46356;DHT22;32066;49.474;11.106;2022-10-31T01:50:13;14.50;98.10
46356;DHT22;32066;49.474;11.106;2022-10-31T01:52:43;14.50;98.30
46356;DHT22;32066;49.474;11.106;2022-10-31T01:55:13;14.60;98.50
46356;DHT22;32066;49.474;11.106;2022-10-31T01:57:46;14.50;98.50
46356;DHT22;32066;49.474;11.106;2022-10-31T02:00:16;14.50;98.40
46356;DHT22;32066;49.474;11.106;2022-10-31T02:02:45;14.60;98.50
46356;DHT22;32066;49.474;11.106;2022-10-31T02:05:16;14.50;98.70
46356;DHT22;32066;49.474;11.106;2022-10-31T02:07:48;14.60;98.60
46356;DHT22;32066;49.474;11.106;2022-10-31T02:10:19;14.50;98.30
46356;DHT22;32066;49.474;11.106;2022-10-31T02:12:49;14.50;98.20
46356;DHT22;32066;49.474;11.106;2022-10-31T02:15:16;14.50;98.50
46356;DHT22;32066;49.474;11.106;2022-10-31T02:17:43;14.50;98.40
46356;DHT22;32066;49.474;11.106;2022-10-31T02:20:15;14.50;98.30
46356;DHT22;32066;49.474;11.106;2022-10-31T02:23:14;14.40;98.40
46356;DHT22;32066;49.474;11.106;2022-10-31T02:29:08;14.40;98.20
46356;DHT22;32066;49.474;11.106;2022-10-31T02:31:44;14.40;97.90
46356;DHT22;32066;49.474;11.106;2022-10-31T02:34:17;14.30;97.90
46356;DHT22;32066;49.474;11.106;2022-10-31T02:36:53;14.30;97.60
46356;DHT22;32066;49.474;11.106;2022-10-31T02:39:25;14.20;97.50
46356;DHT22;32066;49.474;11.106;2022-10-31T02:42:01;14.30;97.60
46356;DHT22;32066;49.474;11.106;2022-10-31T02:44:35;14.20;97.50
46356;DHT22;32066;49.474;11.106;2022-10-31T02:47:06;14.20;98.10
46356;DHT22;32066;49.474;11.106;2022-10-31T02:49:38;14.20;98.20
46356;DHT22;32066;49.474;11.106;2022-10-31T02:52:17;14.20;98.10
46356;DHT22;32066;49.474;11.106;2022-10-31T02:54:46;14.20;98.00
46356;DHT22;32066;49.474;11.106;2022-10-31T02:57:16;14.20;97.80
46356;DHT22;32066;49.474;11.106;2022-10-31T02:59:46;14.10;97.90
46356;DHT22;32066;49.474;11.106;2022-10-31T03:02:30;14.10;97.80
46356;DHT22;32066;49.474;11.106;2022-10-31T03:05:14;14.10;97.70
46356;DHT22;32066;49.474;11.106;2022-10-31T03:07:52;14.00;97.50
46356;DHT22;32066;49.474;11.106;2022-10-31T03:10:27;14.00;97.30
46356;DHT22;32066;49.474;11.106;2022-10-31T03:13:04;14.00;97.30
46356;DHT22;32066;49.474;11.106;2022-10-31T03:15:35;13.90;97.30
46356;DHT22;32066;49.474;11.106;2022-10-31T03:18:08;13.90;97.30
46356;DHT22;32066;49.474;11.106;2022-10-31T03:20:37;13.80;97.20
46356;DHT22;32066;49.474;11.106;2022-10-31T03:23:08;13.80;97.10
46356;DHT22;32066;49.474;11.106;2022-10-31T03:25:37;13.80;97.20
46356;DHT22;32066;49.474;11.106;2022-10-31T03:28:09;13.70;97.10
46356;DHT22;32066;49.474;11.106;2022-10-31T03:30:38;13.60;97.00
46356;DHT22;32066;49.474;11.106;2022-10-31T03:33:12;13.60;97.20
46356;DHT22;32066;49.474;11.106;2022-10-31T03:35:43;13.60;97.20
46356;DHT22;32066;49.474;11.106;2022-10-31T03:38:11;13.50;97.20
46356;DHT22;32066;49.474;11.106;2022-10-31T03:40:41;13.50;97.20
46356;DHT22;32066;49.474;11.106;2022-10-31T03:43:12;13.50;97.00
46356;DHT22;32066;49.474;11.106;2022-10-31T03:45:44;13.50;97.10
46356;DHT22;32066;49.474;11.106;2022-10-31T03:48:13;13.50;97.00
46356;DHT22;32066;49.474;11.106;2022-10-31T03:50:47;13.50;97.20
46356;DHT22;32066;49.474;11.106;2022-10-31T03:53:20;13.50;97.20
46356;DHT22;32066;49.474;11.106;2022-10-31T03:55:52;13.50;97.10
46356;DHT22;32066;49.474;11.106;2022-10-31T03:58:23;13.40;97.20
46356;DHT22;32066;49.474;11.106;2022-10-31T04:00:54;13.40;97.30
46356;DHT22;32066;49.474;11.106;2022-10-31T04:03:26;13.50;97.50
46356;DHT22;32066;49.474;11.106;2022-10-31T04:05:59;13.40;97.60
46356;DHT22;32066;49.474;11.106;2022-10-31T04:08:30;13.40;97.60
46356;DHT22;32066;49.474;11.106;2022-10-31T04:10:59;13.30;97.70
46356;DHT22;32066;49.474;11.106;2022-10-31T04:13:29;13.30;97.80
46356;DHT22;32066;49.474;11.106;2022-10-31T04:16:03;13.30;97.50
46356;DHT22;32066;49.474;11.106;2022-10-31T04:18:33;13.30;97.60
46356;DHT22;32066;49.474;11.106;2022-10-31T04:21:01;13.30;97.50
46356;DHT22;32066;49.474;11.106;2022-10-31T04:23:28;13.30;97.40
46356;DHT22;32066;49.474;11.106;2022-10-31T04:25:56;13.30;97.40
46356;DHT22;32066;49.474;11.106;2022-10-31T04:28:23;13.30;97.30
46356;DHT22;32066;49.474;11.106;2022-10-31T04:30:50;13.20;97.30
46356;DHT22;32066;49.474;11.106;2022-10-31T04:33:17;13.20;97.30
46356;DHT22;32066;49.474;11.106;2022-10-31T04:35:47;13.30;97.30
46356;DHT22;32066;49.474;11.106;2022-10-31T04:38:14;13.20;97.30
46356;DHT22;32066;49.474;11.106;2022-10-31T04:40:42;13.10;97.40
46356;DHT22;32066;49.474;11.106;2022-10-31T04:43:28;13.10;97.00
46356;DHT22;32066;49.474;11.106;2022-10-31T04:45:55;13.10;97.20
46356;DHT22;32066;49.474;11.106;2022-10-31T04:48:22;13.10;97.20
46356;DHT22;32066;49.474;11.106;2022-10-31T04:50:50;13.10;97.00
46356;DHT22;32066;49.474;11.106;2022-10-31T04:53:16;13.00;97.10
46356;DHT22;32066;49.474;11.106;2022-10-31T04:56:07;13.00;97.10
46356;DHT22;32066;49.474;11.106;2022-10-31T04:58:39;13.00;97.00
46356;DHT22;32066;49.474;11.106;2022-10-31T05:01:08;13.00;96.90
46356;DHT22;32066;49.474;11.106;2022-10-31T05:03:35;12.90;97.00
46356;DHT22;32066;49.474;11.106;2022-10-31T05:06:03;12.90;97.00
46356;DHT22;32066;49.474;11.106;2022-10-31T05:08:30;12.90;97.10
46356;DHT22;32066;49.474;11.106;2022-10-31T05:11:00;12.90;97.10
46356;DHT22;32066;49.474;11.106;2022-10-31T05:13:27;12.90;97.30
46356;DHT22;32066;49.474;11.106;2022-10-31T05:16:06;12.90;97.10
46356;DHT22;32066;49.474;11.106;2022-10-31T05:18:52;12.80;97.00
46356;DHT22;32066;49.474;11.106;2022-10-31T05:21:38;12.80;97.00
46356;DHT22;32066;49.474;11.106;2022-10-31T05:24:07;12.70;96.90
46356;DHT22;32066;49.474;11.106;2022-10-31T05:26:35;12.70;96.90
46356;DHT22;32066;49.474;11.106;2022-10-31T05:29:02;12.70;96.90
46356;DHT22;32066;49.474;11.106;2022-10-31T05:31:29;12.80;97.20
46356;DHT22;32066;49.474;11.106;2022-10-31T05:33:55;12.70;97.30
46356;DHT22;32066;49.474;11.106;2022-10-31T05:36:42;12.70;97.50
46356;DHT22;32066;49.474;11.106;2022-10-31T05:39:15;12.70;97.40
46356;DHT22;32066;49.474;11.106;2022-10-31T05:41:46;12.80;97.40
46356;DHT22;32066;49.474;11.106;2022-10-31T05:44:21;12.70;97.50
46356;DHT22;32066;49.474;11.106;2022-10-31T05:47:08;12.70;97.60
46356;DHT22;32066;49.474;11.106;2022-10-31T05:49:54;12.60;97.90
46356;DHT22;32066;49.474;11.106;2022-10-31T05:52:41;12.70;97.90
46356;DHT22;32066;49.474;11.106;2022-10-31T05:55:27;12.70;97.70
46356;DHT22;32066;49.474;11.106;2022-10-31T05:58:16;12.60;97.80
46356;DHT22;32066;49.474;11.106;2022-10-31T06:01:02;12.60;97.90
46356;DHT22;32066;49.474;11.106;2022-10-31T06:03:29;12.70;98.00
46356;DHT22;32066;49.474;11.106;2022-10-31T06:05:57;12.70;98.20
46356;DHT22;32066;49.474;11.106;2022-10-31T06:08:30;12.70;98.20
46356;DHT22;32066;49.474;11.106;2022-10-31T06:11:01;12.70;98.10
46356;DHT22;32066;49.474;11.106;2022-10-31T06:13:47;12.80;97.90
46356;DHT22;32066;49.474;11.106;2022-10-31T06:16:24;12.80;97.80
46356;DHT22;32066;49.474;11.106;2022-10-31T06:18:53;12.80;97.80
46356;DHT22;32066;49.474;11.106;2022-10-31T06:21:20;12.80;97.80
46356;DHT22;32066;49.474;11.106;2022-10-31T06:23:51;12.80;97.80
46356;DHT22;32066;49.474;11.106;2022-10-31T06:26:41;12.80;97.60
46356;DHT22;32066;49.474;11.106;2022-10-31T06:29:08;12.70;97.60
46356;DHT22;32066;49.474;11.106;2022-10-31T06:31:54;12.80;97.40
46356;DHT22;32066;49.474;11.106;2022-10-31T06:34:21;12.70;97.30
46356;DHT22;32066;49.474;11.106;2022-10-31T06:36:48;12.70;97.40
46356;DHT22;32066;49.474;11.106;2022-10-31T06:39:19;12.70;97.40
46356;DHT22;32066;49.474;11.106;2022-10-31T06:41:47;12.70;97.50
46356;DHT22;32066;49.474;11.106;2022-10-31T06:44:15;12.80;97.50
46356;DHT22;32066;49.474;11.106;2022-10-31T06:46:54;12.70;97.60
46356;DHT22;32066;49.474;11.106;2022-10-31T06:49:40;12.80;97.90
46356;DHT22;32066;49.474;11.106;2022-10-31T06:52:14;12.90;97.90
46356;DHT22;32066;49.474;11.106;2022-10-31T06:54:42;12.90;98.00
46356;DHT22;32066;49.474;11.106;2022-10-31T06:57:09;12.90;98.10
46356;DHT22;32066;49.474;11.106;2022-10-31T06:59:37;13.00;98.10
46356;DHT22;32066;49.474;11.106;2022-10-31T07:02:04;13.10;98.00
46356;DHT22;32066;49.474;11.106;2022-10-31T07:04:32;13.20;97.90
46356;DHT22;32066;49.474;11.106;2022-10-31T07:07:00;13.20;97.80
46356;DHT22;32066;49.474;11.106;2022-10-31T07:09:26;13.30;97.70
46356;DHT22;32066;49.474;11.106;2022-10-31T07:11:57;13.30;97.60
46356;DHT22;32066;49.474;11.106;2022-10-31T07:14:24;13.30;97.60
46356;DHT22;32066;49.474;11.106;2022-10-31T07:16:52;13.40;97.70
46356;DHT22;32066;49.474;11.106;2022-10-31T07:19:24;13.40;97.60
46356;DHT22;32066;49.474;11.106;2022-10-31T07:21:51;13.60;97.60
46356;DHT22;32066;49.474;11.106;2022-10-31T07:24:18;13.60;97.60
46356;DHT22;32066;49.474;11.106;2022-10-31T07:27:06;13.70;97.50
46356;DHT22;32066;49.474;11.106;2022-10-31T07:29:34;13.80;97.50
46356;DHT22;32066;49.474;11.106;2022-10-31T07:32:01;13.90;97.50
46356;DHT22;32066;49.474;11.106;2022-10-31T07:34:29;13.90;97.40
46356;DHT22;32066;49.474;11.106;2022-10-31T07:37:18;14.00;97.40
46356;DHT22;32066;49.474;11.106;2022-10-31T07:39:45;14.10;97.40
46356;DHT22;32066;49.474;11.106;2022-10-31T07:42:13;14.20;97.40
46356;DHT22;32066;49.474;11.106;2022-10-31T07:44:43;14.30;97.40
46356;DHT22;32066;49.474;11.106;2022-10-31T07:47:29;14.50;97.40
46356;DHT22;32066;49.474;11.106;2022-10-31T07:50:17;14.50;97.40
46356;DHT22;32066;49.474;11.106;2022-10-31T07:53:05;14.60;97.40
46356;DHT22;32066;49.474;11.106;2022-10-31T07:55:52;14.70;97.40
46356;DHT22;32066;49.474;11.106;2022-10-31T07:58:28;14.80;97.20
46356;DHT22;32066;49.474;11.106;2022-10-31T08:00:58;14.90;97.10
46356;DHT22;32066;49.474;11.106;2022-10-31T08:03:33;14.90;97.20
46356;DHT22;32066;49.474;11.106;2022-10-31T08:06:23;15.10;97.10
46356;DHT22;32066;49.474;11.106;2022-10-31T08:09:11;15.10;96.90
46356;DHT22;32066;49.474;11.106;2022-10-31T08:11:38;15.20;97.00
46356;DHT22;32066;49.474;11.106;2022-10-31T08:14:08;15.20;96.90
46356;DHT22;32066;49.474;11.106;2022-10-31T08:16:34;15.30;97.00
46356;DHT22;32066;49.474;11.106;2022-10-31T08:19:04;15.40;97.00
46356;DHT22;32066;49.474;11.106;2022-10-31T08:21:36;15.40;97.10
46356;DHT22;32066;49.474;11.106;2022-10-31T08:24:03;15.50;97.00
46356;DHT22;32066;49.474;11.106;2022-10-31T08:26:30;15.50;97.00
46356;DHT22;32066;49.474;11.106;2022-10-31T08:28:57;15.60;97.10
46356;DHT22;32066;49.474;11.106;2022-10-31T08:31:29;15.70;97.10
46356;DHT22;32066;49.474;11.106;2022-10-31T08:34:14;15.80;97.10
46356;DHT22;32066;49.474;11.106;2022-10-31T08:36:41;16.30;99.90
46356;DHT22;32066;49.474;11.106;2022-10-31T08:39:24;16.70;99.90
46356;DHT22;32066;49.474;11.106;2022-10-31T08:41:51;17.10;99.90
46356;DHT22;32066;49.474;11.106;2022-10-31T08:44:18;17.40;99.30
46356;DHT22;32066;49.474;11.106;2022-10-31T08:46:46;17.70;98.30
46356;DHT22;32066;49.474;11.106;2022-10-31T08:49:13;17.90;97.40
46356;DHT22;32066;49.474;11.106;2022-10-31T08:51:42;18.10;97.00
46356;DHT22;32066;49.474;11.106;2022-10-31T08:54:09;18.30;96.40
46356;DHT22;32066;49.474;11.106;2022-10-31T08:56:54;18.50;95.60
46356;DHT22;32066;49.474;11.106;2022-10-31T08:59:40;18.60;95.50
46356;DHT22;32066;49.474;11.106;2022-10-31T09:02:21;18.80;95.10
46356;DHT22;32066;49.474;11.106;2022-10-31T09:04:51;18.90;94.80
46356;DHT22;32066;49.474;11.106;2022-10-31T09:07:18;19.00;94.40
46356;DHT22;32066;49.474;11.106;2022-10-31T09:09:45;19.10;94.40
46356;DHT22;32066;49.474;11.106;2022-10-31T09:12:12;19.20;94.20
46356;DHT22;32066;49.474;11.106;2022-10-31T09:15:18;19.30;94.00
46356;DHT22;32066;49.474;11.106;2022-10-31T09:18:16;19.40;93.90
46356;DHT22;32066;49.474;11.106;2022-10-31T09:20:50;19.50;93.40
46356;DHT22;32066;49.474;11.106;2022-10-31T09:23:18;19.60;93.20
46356;DHT22;32066;49.474;11.106;2022-10-31T09:25:46;19.70;93.20
46356;DHT22;32066;49.474;11.106;2022-10-31T09:28:31;19.70;93.30
46356;DHT22;32066;49.474;11.106;2022-10-31T09:31:04;19.80;93.10
46356;DHT22;32066;49.474;11.106;2022-10-31T09:33:56;19.90;92.80
46356;DHT22;32066;49.474;11.106;2022-10-31T09:36:34;20.00;92.90
46356;DHT22;32066;49.474;11.106;2022-10-31T09:39:02;20.10;92.80
46356;DHT22;32066;49.474;11.106;2022-10-31T09:41:49;20.10;92.70
46356;DHT22;32066;49.474;11.106;2022-10-31T09:44:22;20.20;92.60
46356;DHT22;32066;49.474;11.106;2022-10-31T09:46:56;20.30;92.30
46356;DHT22;32066;49.474;11.106;2022-10-31T09:49:42;20.40;92.20
46356;DHT22;32066;49.474;11.106;2022-10-31T09:52:18;20.40;92.30
46356;DHT22;32066;49.474;11.106;2022-10-31T09:54:49;20.50;92.20
46356;DHT22;32066;49.474;11.106;2022-10-31T09:57:23;20.60;92.00
46356;DHT22;32066;49.474;11.106;2022-10-31T09:59:53;20.60;92.20
46356;DHT22;32066;49.474;11.106;2022-10-31T10:02:26;20.70;92.00
46356;DHT22;32066;49.474;11.106;2022-10-31T10:04:59;20.60;92.20
46356;DHT22;32066;49.474;11.106;2022-10-31T10:07:44;20.60;92.40
46356;DHT22;32066;49.474;11.106;2022-10-31T10:10:50;20.50;91.80
46356;DHT22;32066;49.474;11.106;2022-10-31T10:13:47;20.70;96.70
46356;DHT22;32066;49.474;11.106;2022-10-31T10:16:34;21.00;95.40
46356;DHT22;32066;49.474;11.106;2022-10-31T10:19:15;21.10;93.80
46356;DHT22;32066;49.474;11.106;2022-10-31T10:21:53;21.10;92.50
46356;DHT22;32066;49.474;11.106;2022-10-31T10:24:31;21.20;92.20
46356;DHT22;32066;49.474;11.106;2022-10-31T10:27:05;21.20;91.90
46356;DHT22;32066;49.474;11.106;2022-10-31T10:29:37;21.40;91.60
46356;DHT22;32066;49.474;11.106;2022-10-31T10:32:19;21.40;91.40
46356;DHT22;32066;49.474;11.106;2022-10-31T10:34:51;21.40;91.60
46356;DHT22;32066;49.474;11.106;2022-10-31T10:37:26;21.50;91.60
46356;DHT22;32066;49.474;11.106;2022-10-31T10:40:00;21.50;91.50
46356;DHT22;32066;49.474;11.106;2022-10-31T10:42:28;21.60;91.20
46356;DHT22;32066;49.474;11.106;2022-10-31T10:45:17;21.70;91.20
46356;DHT22;32066;49.474;11.106;2022-10-31T10:48:07;21.80;90.90
46356;DHT22;32066;49.474;11.106;2022-10-31T10:50:40;21.90;91.10
46356;DHT22;32066;49.474;11.106;2022-10-31T10:53:18;21.90;91.00
46356;DHT22;32066;49.474;11.106;2022-10-31T10:55:59;22.00;90.90
46356;DHT22;32066;49.474;11.106;2022-10-31T10:58:28;22.00;90.80
46356;DHT22;32066;49.474;11.106;2022-10-31T11:00:55;22.10;90.70
46356;DHT22;32066;49.474;11.106;2022-10-31T11:03:22;22.20;90.70
46356;DHT22;32066;49.474;11.106;2022-10-31T11:05:51;22.20;90.70
46356;DHT22;32066;49.474;11.106;2022-10-31T11:08:25;22.30;90.70
46356;DHT22;32066;49.474;11.106;2022-10-31T11:10:58;22.20;90.60
46356;DHT22;32066;49.474;11.106;2022-10-31T11:13:25;22.20;90.70
46356;DHT22;32066;49.474;11.106;2022-10-31T11:16:01;22.20;90.80
46356;DHT22;32066;49.474;11.106;2022-10-31T11:18:30;22.20;90.90
46356;DHT22;32066;49.474;11.106;2022-10-31T11:20:59;22.20;90.90
46356;DHT22;32066;49.474;11.106;2022-10-31T11:23:29;22.30;91.10
46356;DHT22;32066;49.474;11.106;2022-10-31T11:25:59;22.20;91.00
46356;DHT22;32066;49.474;11.106;2022-10-31T11:28:28;22.20;91.10
46356;DHT22;32066;49.474;11.106;2022-10-31T11:30:57;22.30;90.90
46356;DHT22;32066;49.474;11.106;2022-10-31T11:33:29;22.30;91.00
46356;DHT22;32066;49.474;11.106;2022-10-31T11:35:57;22.40;91.00
46356;DHT22;32066;49.474;11.106;2022-10-31T11:38:26;22.30;91.10
46356;DHT22;32066;49.474;11.106;2022-10-31T11:41:00;22.30;91.10
46356;DHT22;32066;49.474;11.106;2022-10-31T11:43:30;22.30;91.10
46356;DHT22;32066;49.474;11.106;2022-10-31T11:45:57;22.30;91.10
46356;DHT22;32066;49.474;11.106;2022-10-31T11:48:24;22.30;91.00
46356;DHT22;32066;49.474;11.106;2022-10-31T11:50:54;22.10;91.00
46356;DHT22;32066;49.474;11.106;2022-10-31T11:53:26;22.20;91.00
46356;DHT22;32066;49.474;11.106;2022-10-31T11:56:10;22.20;91.30
46356;DHT22;32066;49.474;11.106;2022-10-31T11:58:38;22.20;91.20
46356;DHT22;32066;49.474;11.106;2022-10-31T12:01:06;22.20;91.30
46356;DHT22;32066;49.474;11.106;2022-10-31T12:03:41;22.20;91.40
46356;DHT22;32066;49.474;11.106;2022-10-31T12:06:12;22.30;91.50
46356;DHT22;32066;49.474;11.106;2022-10-31T12:08:41;22.40;91.70
46356;DHT22;32066;49.474;11.106;2022-10-31T12:11:22;22.50;91.40
46356;DHT22;32066;49.474;11.106;2022-10-31T12:14:05;22.60;91.30
46356;DHT22;32066;49.474;11.106;2022-10-31T12:16:39;22.70;91.40
46356;DHT22;32066;49.474;11.106;2022-10-31T12:19:16;22.80;91.10
46356;DHT22;32066;49.474;11.106;2022-10-31T12:21:56;22.80;91.30
46356;DHT22;32066;49.474;11.106;2022-10-31T12:24:39;22.90;91.00
46356;DHT22;32066;49.474;11.106;2022-10-31T12:27:20;23.00;90.90
46356;DHT22;32066;49.474;11.106;2022-10-31T12:30:01;23.10;90.90
46356;DHT22;32066;49.474;11.106;2022-10-31T12:32:36;23.10;90.80
46356;DHT22;32066;49.474;11.106;2022-10-31T12:35:26;23.30;90.70
46356;DHT22;32066;49.474;11.106;2022-10-31T12:38:11;23.20;90.60
46356;DHT22;32066;49.474;11.106;2022-10-31T12:40:53;23.20;91.00
46356;DHT22;32066;49.474;11.106;2022-10-31T12:43:35;23.10;90.70
46356;DHT22;32066;49.474;11.106;2022-10-31T12:46:07;23.00;90.90
46356;DHT22;32066;49.474;11.106;2022-10-31T12:48:53;23.00;91.00
46356;DHT22;32066;49.474;11.106;2022-10-31T12:51:31;22.90;91.20
46356;DHT22;32066;49.474;11.106;2022-10-31T12:54:13;23.00;91.10
46356;DHT22;32066;49.474;11.106;2022-10-31T12:56:57;23.00;91.30
46356;DHT22;32066;49.474;11.106;2022-10-31T12:59:31;23.10;91.10
46356;DHT22;32066;49.474;11.106;2022-10-31T13:02:04;23.10;91.20
46356;DHT22;32066;49.474;11.106;2022-10-31T13:04:40;23.10;90.70
46356;DHT22;32066;49.474;11.106;2022-10-31T13:07:09;23.10;90.80
46356;DHT22;32066;49.474;11.106;2022-10-31T13:09:42;23.00;90.70
46356;DHT22;32066;49.474;11.106;2022-10-31T13:12:13;23.00;90.60
46356;DHT22;32066;49.474;11.106;2022-10-31T13:14:47;22.90;90.60
46356;DHT22;32066;49.474;11.106;2022-10-31T13:17:22;22.80;90.80
46356;DHT22;32066;49.474;11.106;2022-10-31T13:19:53;22.80;90.90
46356;DHT22;32066;49.474;11.106;2022-10-31T13:22:23;22.70;90.90
46356;DHT22;32066;49.474;11.106;2022-10-31T13:24:54;22.60;91.00
46356;DHT22;32066;49.474;11.106;2022-10-31T13:27:25;22.60;91.10
46356;DHT22;32066;49.474;11.106;2022-10-31T13:30:00;22.50;91.10
46356;DHT22;32066;49.474;11.106;2022-10-31T13:32:35;22.40;91.20
46356;DHT22;32066;49.474;11.106;2022-10-31T13:35:04;22.30;91.50
46356;DHT22;32066;49.474;11.106;2022-10-31T13:37:36;22.30;91.60
46356;DHT22;32066;49.474;11.106;2022-10-31T13:40:13;22.30;91.60
46356;DHT22;32066;49.474;11.106;2022-10-31T13:42:53;22.20;91.50
46356;DHT22;32066;49.474;11.106;2022-10-31T13:45:24;22.20;91.70
46356;DHT22;32066;49.474;11.106;2022-10-31T13:47:56;22.10;91.70
46356;DHT22;32066;49.474;11.106;2022-10-31T13:50:26;22.00;91.90
46356;DHT22;32066;49.474;11.106;2022-10-31T13:53:09;22.00;92.10
46356;DHT22;32066;49.474;11.106;2022-10-31T13:55:39;22.00;92.10
46356;DHT22;32066;49.474;11.106;2022-10-31T13:58:21;22.10;92.10
46356;DHT22;32066;49.474;11.106;2022-10-31T14:01:01;22.20;92.00
46356;DHT22;32066;49.474;11.106;2022-10-31T14:03:31;22.30;91.90
46356;DHT22;32066;49.474;11.106;2022-10-31T14:05:59;22.40;91.70
46356;DHT22;32066;49.474;11.106;2022-10-31T14:08:27;22.30;91.80
46356;DHT22;32066;49.474;11.106;2022-10-31T14:10:56;22.40;91.60
46356;DHT22;32066;49.474;11.106;2022-10-31T14:13:26;22.30;91.70
46356;DHT22;32066;49.474;11.106;2022-10-31T14:15:59;22.30;91.90
46356;DHT22;32066;49.474;11.106;2022-10-31T14:18:30;22.20;91.60
46356;DHT22;32066;49.474;11.106;2022-10-31T14:20:57;22.10;91.80
46356;DHT22;32066;49.474;11.106;2022-10-31T14:23:38;22.10;92.00
46356;DHT22;32066;49.474;11.106;2022-10-31T14:26:34;22.00;92.00
46356;DHT22;32066;49.474;11.106;2022-10-31T14:29:21;21.90;92.10
46356;DHT22;32066;49.474;11.106;2022-10-31T14:31:57;21.80;92.30
46356;DHT22;32066;49.474;11.106;2022-10-31T14:34:27;21.70;92.50
46356;DHT22;32066;49.474;11.106;2022-10-31T14:37:19;21.60;92.70
46356;DHT22;32066;49.474;11.106;2022-10-31T14:40:03;21.60;92.80
46356;DHT22;32066;49.474;11.106;2022-10-31T14:42:42;21.40;92.90
46356;DHT22;32066;49.474;11.106;2022-10-31T14:45:19;21.30;93.20
46356;DHT22;32066;49.474;11.106;2022-10-31T14:48:01;21.20;93.40
46356;DHT22;32066;49.474;11.106;2022-10-31T14:50:42;21.10;93.60
46356;DHT22;32066;49.474;11.106;2022-10-31T14:53:16;21.00;93.80
46356;DHT22;32066;49.474;11.106;2022-10-31T14:55:47;20.90;94.00
46356;DHT22;32066;49.474;11.106;2022-10-31T14:58:19;20.90;94.00
46356;DHT22;32066;49.474;11.106;2022-10-31T15:00:47;20.80;94.00
46356;DHT22;32066;49.474;11.106;2022-10-31T15:03:18;20.80;94.30
46356;DHT22;32066;49.474;11.106;2022-10-31T15:05:51;20.80;94.40
46356;DHT22;32066;49.474;11.106;2022-10-31T15:08:33;20.80;94.30
46356;DHT22;32066;49.474;11.106;2022-10-31T15:11:03;20.70;94.40
46356;DHT22;32066;49.474;11.106;2022-10-31T15:13:40;20.70;94.70
46356;DHT22;32066;49.474;11.106;2022-10-31T15:16:09;20.60;94.70
46356;DHT22;32066;49.474;11.106;2022-10-31T15:18:46;20.50;94.70
46356;DHT22;32066;49.474;11.106;2022-10-31T15:21:15;20.40;94.80
46356;DHT22;32066;49.474;11.106;2022-10-31T15:23:42;20.30;94.90
46356;DHT22;32066;49.474;11.106;2022-10-31T15:26:15;20.30;94.90
46356;DHT22;32066;49.474;11.106;2022-10-31T15:28:44;20.30;95.10
46356;DHT22;32066;49.474;11.106;2022-10-31T15:31:16;20.20;95.10
46356;DHT22;32066;49.474;11.106;2022-10-31T15:33:47;20.20;95.20
46356;DHT22;32066;49.474;11.106;2022-10-31T15:36:19;20.20;95.20
46356;DHT22;32066;49.474;11.106;2022-10-31T15:38:47;20.20;95.40
46356;DHT22;32066;49.474;11.106;2022-10-31T15:41:26;20.10;95.40
46356;DHT22;32066;49.474;11.106;2022-10-31T15:43:55;20.10;95.60
46356;DHT22;32066;49.474;11.106;2022-10-31T15:46:25;20.10;95.50
46356;DHT22;32066;49.474;11.106;2022-10-31T15:48:54;20.00;95.60
46356;DHT22;32066;49.474;11.106;2022-10-31T15:51:26;19.90;95.80
46356;DHT22;32066;49.474;11.106;2022-10-31T15:53:54;19.90;95.80
46356;DHT22;32066;49.474;11.106;2022-10-31T15:56:23;19.90;95.90